sensor_id;sensor_type;location;lat;lon;timestamp;temperature;humidity
24645;DHT22;12780;45.502;9.146;2022-09-23T00:00:34;17.70;99.90
24645;DHT22;12780;45.502;9.146;2022-09-23T00:03:00;17.50;99.90
24645;DHT22;12780;45.502;9.146;2022-09-23T00:05:26;17.60;99.90
24645;DHT22;12780;45.502;9.146;2022-09-23T00:07:52;17.60;99.90
24645;DHT22;12780;45.502;9.146;2022-09-23T00:10:19;17.60;99.90
24645;DHT22;12780;45.502;9.146;2022-09-23T00:12:45;17.60;99.90
24645;DHT22;12780;45.502;9.146;2022-09-23T00:15:11;17.60;99.90
24645;DHT22;12780;45.502;9.146;2022-09-23T00:17:37;17.50;99.90
24645;DHT22;12780;45.502;9.146;2022-09-23T00:20:03;17.50;99.90
24645;DHT22;12780;45.502;9.146;2022-09-23T00:22:29;17.50;99.90
24645;DHT22;12780;45.502;9.146;2022-09-23T00:24:54;17.60;99.90
24645;DHT22;12780;45.502;9.146;2022-09-23T00:27:20;17.60;99.90
24645;DHT22;12780;45.502;9.146;2022-09-23T00:29:47;17.60;99.90
24645;DHT22;12780;45.502;9.146;2022-09-23T00:32:13;17.70;99.90
24645;DHT22;12780;45.502;9.146;2022-09-23T00:34:38;17.80;99.90
24645;DHT22;12780;45.502;9.146;2022-09-23T00:37:04;17.60;99.90
24645;DHT22;12780;45.502;9.146;2022-09-23T00:39:30;17.60;99.90
24645;DHT22;12780;45.502;9.146;2022-09-23T00:41:56;17.60;99.90
24645;DHT22;12780;45.502;9.146;2022-09-23T00:47:18;17.50;99.90
24645;DHT22;12780;45.502;9.146;2022-09-23T00:49:46;17.60;99.90
24645;DHT22;12780;45.502;9.146;2022-09-23T00:52:16;17.70;99.90
24645;DHT22;12780;45.502;9.146;2022-09-23T00:54:43;17.50;99.90
24645;DHT22;12780;45.502;9.146;2022-09-23T00:57:11;17.50;99.90
24645;DHT22;12780;45.502;9.146;2022-09-23T00:59:39;17.50;99.90
24645;DHT22;12780;45.502;9.146;2022-09-23T01:02:06;17.50;99.90
24645;DHT22;12780;45.502;9.146;2022-09-23T01:04:34;17.40;99.90
24645;DHT22;12780;45.502;9.146;2022-09-23T01:07:00;17.40;99.90
24645;DHT22;12780;45.502;9.146;2022-09-23T01:09:25;17.30;99.90
24645;DHT22;12780;45.502;9.146;2022-09-23T01:14:55;17.30;99.90
24645;DHT22;12780;45.502;9.146;2022-09-23T01:17:38;17.30;99.90
24645;DHT22;12780;45.502;9.146;2022-09-23T01:22:51;17.30;99.90
24645;DHT22;12780;45.502;9.146;2022-09-23T01:38:48;17.20;99.90
24645;DHT22;12780;45.502;9.146;2022-09-23T01:46:52;17.10;99.90
24645;DHT22;12780;45.502;9.146;2022-09-23T01:49:36;17.10;99.90
24645;DHT22;12780;45.502;9.146;2022-09-23T01:52:12;17.10;99.90
24645;DHT22;12780;45.502;9.146;2022-09-23T01:55:30;17.20;99.90
24645;DHT22;12780;45.502;9.146;2022-09-23T01:57:50;17.30;99.90
24645;DHT22;12780;45.502;9.146;2022-09-23T02:00:18;17.30;99.90
24645;DHT22;12780;45.502;9.146;2022-09-23T02:02:53;17.30;99.90
24645;DHT22;12780;45.502;9.146;2022-09-23T02:05:33;17.30;99.90
24645;DHT22;12780;45.502;9.146;2022-09-23T02:08:00;17.20;99.90
24645;DHT22;12780;45.502;9.146;2022-09-23T02:10:33;17.10;99.90
24645;DHT22;12780;45.502;9.146;2022-09-23T02:13:04;17.10;99.90
24645;DHT22;12780;45.502;9.146;2022-09-23T02:15:36;17.20;99.90
24645;DHT22;12780;45.502;9.146;2022-09-23T02:18:19;17.30;99.90
24645;DHT22;12780;45.502;9.146;2022-09-23T02:20:48;17.20;99.90
24645;DHT22;12780;45.502;9.146;2022-09-23T02:23:48;17.20;99.90
24645;DHT22;12780;45.502;9.146;2022-09-23T02:32:12;17.10;99.90
24645;DHT22;12780;45.502;9.146;2022-09-23T02:37:44;17.10;99.90
24645;DHT22;12780;45.502;9.146;2022-09-23T02:40:18;17.00;99.90
24645;DHT22;12780;45.502;9.146;2022-09-23T02:43:16;17.00;99.90
24645;DHT22;12780;45.502;9.146;2022-09-23T02:45:46;17.00;99.90
24645;DHT22;12780;45.502;9.146;2022-09-23T02:48:57;17.00;99.90
24645;DHT22;12780;45.502;9.146;2022-09-23T02:51:05;17.00;99.90
24645;DHT22;12780;45.502;9.146;2022-09-23T02:53:31;17.00;99.90
24645;DHT22;12780;45.502;9.146;2022-09-23T02:56:02;17.10;99.90
24645;DHT22;12780;45.502;9.146;2022-09-23T02:58:37;17.00;99.90
24645;DHT22;12780;45.502;9.146;2022-09-23T03:01:23;17.20;99.90
24645;DHT22;12780;45.502;9.146;2022-09-23T03:07:23;17.20;99.90
24645;DHT22;12780;45.502;9.146;2022-09-23T03:09:56;17.10;99.90
24645;DHT22;12780;45.502;9.146;2022-09-23T03:12:34;17.10;99.90
24645;DHT22;12780;45.502;9.146;2022-09-23T03:15:35;17.00;99.90
24645;DHT22;12780;45.502;9.146;2022-09-23T03:20:57;17.00;99.90
24645;DHT22;12780;45.502;9.146;2022-09-23T03:23:32;16.90;99.90
24645;DHT22;12780;45.502;9.146;2022-09-23T03:26:07;16.90;99.90
24645;DHT22;12780;45.502;9.146;2022-09-23T03:28:35;16.80;99.90
24645;DHT22;12780;45.502;9.146;2022-09-23T03:31:02;16.90;99.90
24645;DHT22;12780;45.502;9.146;2022-09-23T03:33:28;16.80;99.90
24645;DHT22;12780;45.502;9.146;2022-09-23T03:36:06;16.70;99.90
24645;DHT22;12780;45.502;9.146;2022-09-23T03:39:00;16.80;99.90
24645;DHT22;12780;45.502;9.146;2022-09-23T03:41:35;16.80;99.90
24645;DHT22;12780;45.502;9.146;2022-09-23T03:44:03;16.80;99.90
24645;DHT22;12780;45.502;9.146;2022-09-23T03:46:32;16.80;99.90
24645;DHT22;12780;45.502;9.146;2022-09-23T03:49:08;16.80;99.90
24645;DHT22;12780;45.502;9.146;2022-09-23T03:51:35;16.90;99.90
24645;DHT22;12780;45.502;9.146;2022-09-23T03:54:01;16.90;99.90
24645;DHT22;12780;45.502;9.146;2022-09-23T03:56:26;16.90;99.90
24645;DHT22;12780;45.502;9.146;2022-09-23T03:58:52;16.90;99.90
24645;DHT22;12780;45.502;9.146;2022-09-23T04:01:17;16.90;99.90
24645;DHT22;12780;45.502;9.146;2022-09-23T04:03:43;17.00;99.90
24645;DHT22;12780;45.502;9.146;2022-09-23T04:06:09;17.00;99.90
24645;DHT22;12780;45.502;9.146;2022-09-23T04:08:34;17.10;99.90
24645;DHT22;12780;45.502;9.146;2022-09-23T04:11:00;17.10;99.90
24645;DHT22;12780;45.502;9.146;2022-09-23T04:13:27;17.00;99.90
24645;DHT22;12780;45.502;9.146;2022-09-23T04:15:53;17.00;99.90
24645;DHT22;12780;45.502;9.146;2022-09-23T04:18:19;17.10;99.90
24645;DHT22;12780;45.502;9.146;2022-09-23T04:20:46;17.00;99.90
24645;DHT22;12780;45.502;9.146;2022-09-23T04:23:11;16.90;99.90
24645;DHT22;12780;45.502;9.146;2022-09-23T04:25:46;16.90;99.90
24645;DHT22;12780;45.502;9.146;2022-09-23T04:28:12;16.80;99.90
24645;DHT22;12780;45.502;9.146;2022-09-23T04:30:39;16.80;99.90
24645;DHT22;12780;45.502;9.146;2022-09-23T04:33:12;16.80;99.90
24645;DHT22;12780;45.502;9.146;2022-09-23T04:35:38;16.90;99.90
24645;DHT22;12780;45.502;9.146;2022-09-23T04:38:05;16.90;99.90
24645;DHT22;12780;45.502;9.146;2022-09-23T04:40:31;16.90;99.90
24645;DHT22;12780;45.502;9.146;2022-09-23T04:42:57;17.10;99.90
24645;DHT22;12780;45.502;9.146;2022-09-23T04:45:22;17.00;99.90
24645;DHT22;12780;45.502;9.146;2022-09-23T04:47:48;17.00;99.90
24645;DHT22;12780;45.502;9.146;2022-09-23T04:50:13;17.10;99.90
24645;DHT22;12780;45.502;9.146;2022-09-23T04:52:39;17.00;99.90
24645;DHT22;12780;45.502;9.146;2022-09-23T04:55:05;17.00;99.90
24645;DHT22;12780;45.502;9.146;2022-09-23T04:57:31;16.90;99.90
24645;DHT22;12780;45.502;9.146;2022-09-23T04:59:56;17.10;99.90
24645;DHT22;12780;45.502;9.146;2022-09-23T05:02:22;16.90;99.90
24645;DHT22;12780;45.502;9.146;2022-09-23T05:04:49;16.90;99.90
24645;DHT22;12780;45.502;9.146;2022-09-23T05:07:15;16.90;99.90
24645;DHT22;12780;45.502;9.146;2022-09-23T05:09:41;16.90;99.90
24645;DHT22;12780;45.502;9.146;2022-09-23T05:12:07;16.90;99.90
24645;DHT22;12780;45.502;9.146;2022-09-23T05:14:32;17.10;99.90
24645;DHT22;12780;45.502;9.146;2022-09-23T05:16:58;16.90;99.90
24645;DHT22;12780;45.502;9.146;2022-09-23T05:19:24;17.00;99.90
24645;DHT22;12780;45.502;9.146;2022-09-23T05:21:49;16.90;99.90
24645;DHT22;12780;45.502;9.146;2022-09-23T05:24:15;17.00;99.90
24645;DHT22;12780;45.502;9.146;2022-09-23T05:26:41;17.00;99.90
24645;DHT22;12780;45.502;9.146;2022-09-23T05:29:07;17.00;99.90
24645;DHT22;12780;45.502;9.146;2022-09-23T05:31:33;17.00;99.90
24645;DHT22;12780;45.502;9.146;2022-09-23T05:34:03;17.00;99.90
24645;DHT22;12780;45.502;9.146;2022-09-23T05:36:31;17.00;99.90
24645;DHT22;12780;45.502;9.146;2022-09-23T05:38:56;17.10;99.90
24645;DHT22;12780;45.502;9.146;2022-09-23T05:41:24;17.00;99.90
24645;DHT22;12780;45.502;9.146;2022-09-23T05:43:53;17.00;99.90
24645;DHT22;12780;45.502;9.146;2022-09-23T05:46:25;17.00;99.90
24645;DHT22;12780;45.502;9.146;2022-09-23T05:48:53;17.00;99.90
24645;DHT22;12780;45.502;9.146;2022-09-23T05:51:21;17.10;99.90
24645;DHT22;12780;45.502;9.146;2022-09-23T05:53:49;17.00;99.90
24645;DHT22;12780;45.502;9.146;2022-09-23T05:56:18;17.10;99.90
24645;DHT22;12780;45.502;9.146;2022-09-23T05:58:44;17.20;99.90
24645;DHT22;12780;45.502;9.146;2022-09-23T06:01:12;17.10;99.90
24645;DHT22;12780;45.502;9.146;2022-09-23T06:03:38;17.20;99.90
24645;DHT22;12780;45.502;9.146;2022-09-23T06:06:04;17.10;99.90
24645;DHT22;12780;45.502;9.146;2022-09-23T06:08:30;17.10;99.90
24645;DHT22;12780;45.502;9.146;2022-09-23T06:11:01;17.00;99.90
24645;DHT22;12780;45.502;9.146;2022-09-23T06:13:32;17.10;99.90
24645;DHT22;12780;45.502;9.146;2022-09-23T06:15:57;17.10;99.90
24645;DHT22;12780;45.502;9.146;2022-09-23T06:18:23;17.10;99.90
24645;DHT22;12780;45.502;9.146;2022-09-23T06:20:48;17.20;99.90
24645;DHT22;12780;45.502;9.146;2022-09-23T06:23:14;17.20;99.90
24645;DHT22;12780;45.502;9.146;2022-09-23T06:25:39;17.20;99.90
24645;DHT22;12780;45.502;9.146;2022-09-23T06:28:05;17.30;99.90
24645;DHT22;12780;45.502;9.146;2022-09-23T06:30:35;17.30;99.90
24645;DHT22;12780;45.502;9.146;2022-09-23T06:33:00;17.30;99.90
24645;DHT22;12780;45.502;9.146;2022-09-23T06:35:27;17.40;99.90
24645;DHT22;12780;45.502;9.146;2022-09-23T06:37:53;17.40;99.90
24645;DHT22;12780;45.502;9.146;2022-09-23T06:40:20;17.40;99.90
24645;DHT22;12780;45.502;9.146;2022-09-23T06:42:46;17.60;99.90
24645;DHT22;12780;45.502;9.146;2022-09-23T06:45:13;17.50;99.90
24645;DHT22;12780;45.502;9.146;2022-09-23T06:47:41;17.60;99.90
24645;DHT22;12780;45.502;9.146;2022-09-23T06:50:07;17.50;99.90
24645;DHT22;12780;45.502;9.146;2022-09-23T06:52:33;17.60;99.90
24645;DHT22;12780;45.502;9.146;2022-09-23T06:54:59;17.60;99.90
24645;DHT22;12780;45.502;9.146;2022-09-23T06:57:28;17.70;99.90
24645;DHT22;12780;45.502;9.146;2022-09-23T06:59:54;17.70;99.90
24645;DHT22;12780;45.502;9.146;2022-09-23T07:02:19;17.70;99.90
24645;DHT22;12780;45.502;9.146;2022-09-23T07:04:45;17.80;99.90
24645;DHT22;12780;45.502;9.146;2022-09-23T07:07:11;17.70;99.90
24645;DHT22;12780;45.502;9.146;2022-09-23T07:09:38;17.80;99.90
24645;DHT22;12780;45.502;9.146;2022-09-23T07:12:04;17.70;99.90
24645;DHT22;12780;45.502;9.146;2022-09-23T07:14:29;17.80;99.90
24645;DHT22;12780;45.502;9.146;2022-09-23T07:16:55;17.90;99.90
24645;DHT22;12780;45.502;9.146;2022-09-23T07:19:21;17.90;99.90
24645;DHT22;12780;45.502;9.146;2022-09-23T07:21:46;18.10;99.90
24645;DHT22;12780;45.502;9.146;2022-09-23T07:24:12;18.20;99.90
24645;DHT22;12780;45.502;9.146;2022-09-23T07:26:37;18.20;99.90
24645;DHT22;12780;45.502;9.146;2022-09-23T07:29:03;18.40;99.90
24645;DHT22;12780;45.502;9.146;2022-09-23T07:31:34;18.30;99.90
24645;DHT22;12780;45.502;9.146;2022-09-23T07:34:00;18.20;99.90
24645;DHT22;12780;45.502;9.146;2022-09-23T07:36:26;18.20;99.90
24645;DHT22;12780;45.502;9.146;2022-09-23T07:38:53;18.30;99.90
24645;DHT22;12780;45.502;9.146;2022-09-23T07:41:29;18.40;99.90
24645;DHT22;12780;45.502;9.146;2022-09-23T07:43:56;18.50;99.90
24645;DHT22;12780;45.502;9.146;2022-09-23T07:46:26;18.60;99.90
24645;DHT22;12780;45.502;9.146;2022-09-23T07:48:52;18.70;99.90
24645;DHT22;12780;45.502;9.146;2022-09-23T07:51:21;18.90;99.90
24645;DHT22;12780;45.502;9.146;2022-09-23T07:53:49;18.90;99.90
24645;DHT22;12780;45.502;9.146;2022-09-23T07:56:16;18.80;99.90
24645;DHT22;12780;45.502;9.146;2022-09-23T07:58:44;18.80;99.90
24645;DHT22;12780;45.502;9.146;2022-09-23T08:01:11;18.80;99.90
24645;DHT22;12780;45.502;9.146;2022-09-23T08:03:37;18.90;99.90
24645;DHT22;12780;45.502;9.146;2022-09-23T08:06:12;19.00;99.90
24645;DHT22;12780;45.502;9.146;2022-09-23T08:08:39;19.00;99.90
24645;DHT22;12780;45.502;9.146;2022-09-23T08:11:09;19.00;99.90
24645;DHT22;12780;45.502;9.146;2022-09-23T08:13:35;19.00;99.90
24645;DHT22;12780;45.502;9.146;2022-09-23T08:16:01;19.00;99.90
24645;DHT22;12780;45.502;9.146;2022-09-23T08:18:27;19.00;99.90
24645;DHT22;12780;45.502;9.146;2022-09-23T08:20:53;19.20;99.90
24645;DHT22;12780;45.502;9.146;2022-09-23T08:23:18;19.30;99.90
24645;DHT22;12780;45.502;9.146;2022-09-23T08:25:44;19.50;99.90
24645;DHT22;12780;45.502;9.146;2022-09-23T08:28:15;19.40;99.90
24645;DHT22;12780;45.502;9.146;2022-09-23T08:30:47;19.50;99.90
24645;DHT22;12780;45.502;9.146;2022-09-23T08:33:13;19.60;99.90
24645;DHT22;12780;45.502;9.146;2022-09-23T08:35:39;19.80;99.90
24645;DHT22;12780;45.502;9.146;2022-09-23T08:38:05;19.90;99.90
24645;DHT22;12780;45.502;9.146;2022-09-23T08:40:42;20.00;99.90
24645;DHT22;12780;45.502;9.146;2022-09-23T08:43:27;20.00;99.90
24645;DHT22;12780;45.502;9.146;2022-09-23T08:45:56;20.20;99.90
24645;DHT22;12780;45.502;9.146;2022-09-23T08:48:29;20.30;99.90
24645;DHT22;12780;45.502;9.146;2022-09-23T08:51:14;20.20;99.90
24645;DHT22;12780;45.502;9.146;2022-09-23T08:53:41;20.20;99.90
24645;DHT22;12780;45.502;9.146;2022-09-23T08:56:14;20.10;99.90
24645;DHT22;12780;45.502;9.146;2022-09-23T09:01:26;20.30;99.90
24645;DHT22;12780;45.502;9.146;2022-09-23T09:09:55;20.50;99.90
24645;DHT22;12780;45.502;9.146;2022-09-23T09:12:43;20.60;99.90
24645;DHT22;12780;45.502;9.146;2022-09-23T09:18:01;20.60;99.90
24645;DHT22;12780;45.502;9.146;2022-09-23T09:20:50;20.70;99.90
24645;DHT22;12780;45.502;9.146;2022-09-23T09:23:19;20.70;99.90
24645;DHT22;12780;45.502;9.146;2022-09-23T09:25:51;20.70;99.90
24645;DHT22;12780;45.502;9.146;2022-09-23T09:28:47;20.70;99.90
24645;DHT22;12780;45.502;9.146;2022-09-23T09:33:52;20.60;99.90
24645;DHT22;12780;45.502;9.146;2022-09-23T09:36:31;20.60;99.90
24645;DHT22;12780;45.502;9.146;2022-09-23T09:39:00;20.60;99.90
24645;DHT22;12780;45.502;9.146;2022-09-23T09:41:27;20.60;99.90
24645;DHT22;12780;45.502;9.146;2022-09-23T09:43:56;20.60;99.90
24645;DHT22;12780;45.502;9.146;2022-09-23T09:49:11;20.70;99.90
24645;DHT22;12780;45.502;9.146;2022-09-23T09:51:38;20.70;99.90
24645;DHT22;12780;45.502;9.146;2022-09-23T09:54:36;20.60;99.90
24645;DHT22;12780;45.502;9.146;2022-09-23T09:57:04;20.70;99.90
24645;DHT22;12780;45.502;9.146;2022-09-23T09:59:31;20.60;99.90
24645;DHT22;12780;45.502;9.146;2022-09-23T10:04:58;20.30;99.90
24645;DHT22;12780;45.502;9.146;2022-09-23T10:07:27;20.10;99.90
24645;DHT22;12780;45.502;9.146;2022-09-23T10:09:53;20.10;99.90
24645;DHT22;12780;45.502;9.146;2022-09-23T10:12:24;20.10;99.90
24645;DHT22;12780;45.502;9.146;2022-09-23T10:14:58;20.20;99.90
24645;DHT22;12780;45.502;9.146;2022-09-23T10:17:33;20.30;99.90
24645;DHT22;12780;45.502;9.146;2022-09-23T10:20:02;20.40;99.90
24645;DHT22;12780;45.502;9.146;2022-09-23T10:22:32;20.60;99.90
24645;DHT22;12780;45.502;9.146;2022-09-23T10:25:18;20.70;99.90
24645;DHT22;12780;45.502;9.146;2022-09-23T10:27:44;20.80;99.90
24645;DHT22;12780;45.502;9.146;2022-09-23T10:30:24;20.90;99.90
24645;DHT22;12780;45.502;9.146;2022-09-23T10:32:51;21.10;99.90
24645;DHT22;12780;45.502;9.146;2022-09-23T10:35:20;21.20;99.90
24645;DHT22;12780;45.502;9.146;2022-09-23T10:37:57;21.30;99.90
24645;DHT22;12780;45.502;9.146;2022-09-23T10:40:30;21.30;99.90
24645;DHT22;12780;45.502;9.146;2022-09-23T10:46:39;21.50;99.90
24645;DHT22;12780;45.502;9.146;2022-09-23T11:00:31;21.40;99.90
24645;DHT22;12780;45.502;9.146;2022-09-23T11:03:33;21.50;99.90
24645;DHT22;12780;45.502;9.146;2022-09-23T11:20:02;22.70;99.90
24645;DHT22;12780;45.502;9.146;2022-09-23T11:25:43;22.40;99.90
24645;DHT22;12780;45.502;9.146;2022-09-23T11:37:10;22.70;99.90
24645;DHT22;12780;45.502;9.146;2022-09-23T11:39:42;22.60;99.90
24645;DHT22;12780;45.502;9.146;2022-09-23T11:42:16;22.60;99.90
24645;DHT22;12780;45.502;9.146;2022-09-23T11:44:48;22.70;99.90
24645;DHT22;12780;45.502;9.146;2022-09-23T11:47:20;22.80;99.90
24645;DHT22;12780;45.502;9.146;2022-09-23T11:49:59;22.90;99.90
24645;DHT22;12780;45.502;9.146;2022-09-23T11:52:28;23.00;99.90
24645;DHT22;12780;45.502;9.146;2022-09-23T11:55:06;23.10;99.90
24645;DHT22;12780;45.502;9.146;2022-09-23T11:57:50;23.20;99.90
24645;DHT22;12780;45.502;9.146;2022-09-23T12:02:59;23.00;99.90
24645;DHT22;12780;45.502;9.146;2022-09-23T12:05:34;22.90;99.90
24645;DHT22;12780;45.502;9.146;2022-09-23T12:08:26;22.80;99.90
24645;DHT22;12780;45.502;9.146;2022-09-23T12:13:55;22.30;99.90
24645;DHT22;12780;45.502;9.146;2022-09-23T12:27:43;22.30;99.90
24645;DHT22;12780;45.502;9.146;2022-09-23T12:30:17;22.40;99.90
24645;DHT22;12780;45.502;9.146;2022-09-23T12:32:43;22.50;99.90
24645;DHT22;12780;45.502;9.146;2022-09-23T12:35:31;22.50;99.90
24645;DHT22;12780;45.502;9.146;2022-09-23T12:38:00;22.60;99.90
24645;DHT22;12780;45.502;9.146;2022-09-23T12:40:33;22.70;99.90
24645;DHT22;12780;45.502;9.146;2022-09-23T12:43:00;22.80;99.90
24645;DHT22;12780;45.502;9.146;2022-09-23T12:47:58;22.90;99.90
24645;DHT22;12780;45.502;9.146;2022-09-23T12:56:22;23.00;99.90
24645;DHT22;12780;45.502;9.146;2022-09-23T13:01:18;23.20;99.90
24645;DHT22;12780;45.502;9.146;2022-09-23T13:03:53;23.30;99.90
24645;DHT22;12780;45.502;9.146;2022-09-23T13:06:41;23.40;99.90
24645;DHT22;12780;45.502;9.146;2022-09-23T13:09:16;23.50;99.90
24645;DHT22;12780;45.502;9.146;2022-09-23T13:11:44;23.50;99.90
24645;DHT22;12780;45.502;9.146;2022-09-23T13:14:15;23.40;99.90
24645;DHT22;12780;45.502;9.146;2022-09-23T13:16:44;23.50;99.90
24645;DHT22;12780;45.502;9.146;2022-09-23T13:22:10;23.50;99.90
24645;DHT22;12780;45.502;9.146;2022-09-23T13:24:39;23.40;99.90
24645;DHT22;12780;45.502;9.146;2022-09-23T13:27:27;23.40;99.90
24645;DHT22;12780;45.502;9.146;2022-09-23T13:30:15;23.40;99.90
24645;DHT22;12780;45.502;9.146;2022-09-23T13:32:49;23.30;99.90
24645;DHT22;12780;45.502;9.146;2022-09-23T13:35:23;23.40;99.90
24645;DHT22;12780;45.502;9.146;2022-09-23T13:37:50;23.50;99.90
24645;DHT22;12780;45.502;9.146;2022-09-23T13:40:24;23.60;99.90
24645;DHT22;12780;45.502;9.146;2022-09-23T13:43:08;23.60;99.90
24645;DHT22;12780;45.502;9.146;2022-09-23T13:45:36;23.70;99.90
24645;DHT22;12780;45.502;9.146;2022-09-23T13:48:14;23.80;99.90
24645;DHT22;12780;45.502;9.146;2022-09-23T13:50:47;23.80;99.90
24645;DHT22;12780;45.502;9.146;2022-09-23T13:53:21;23.80;99.90
24645;DHT22;12780;45.502;9.146;2022-09-23T13:55:59;23.70;99.90
24645;DHT22;12780;45.502;9.146;2022-09-23T13:58:28;23.60;99.90
24645;DHT22;12780;45.502;9.146;2022-09-23T14:00:54;23.60;99.90
24645;DHT22;12780;45.502;9.146;2022-09-23T14:03:31;23.50;99.90
24645;DHT22;12780;45.502;9.146;2022-09-23T14:06:00;23.50;99.90
24645;DHT22;12780;45.502;9.146;2022-09-23T14:08:27;23.50;99.90
24645;DHT22;12780;45.502;9.146;2022-09-23T14:10:54;23.60;99.90
24645;DHT22;12780;45.502;9.146;2022-09-23T14:13:24;23.50;99.90
24645;DHT22;12780;45.502;9.146;2022-09-23T14:15:53;23.50;99.90
24645;DHT22;12780;45.502;9.146;2022-09-23T14:18:33;23.50;99.90
24645;DHT22;12780;45.502;9.146;2022-09-23T14:21:00;23.60;99.90
24645;DHT22;12780;45.502;9.146;2022-09-23T14:23:26;23.60;99.90
24645;DHT22;12780;45.502;9.146;2022-09-23T14:25:52;23.70;99.90
24645;DHT22;12780;45.502;9.146;2022-09-23T14:28:21;23.70;99.90
24645;DHT22;12780;45.502;9.146;2022-09-23T14:30:49;23.70;99.90
24645;DHT22;12780;45.502;9.146;2022-09-23T14:33:25;23.80;99.90
24645;DHT22;12780;45.502;9.146;2022-09-23T14:35:53;23.70;99.90
24645;DHT22;12780;45.502;9.146;2022-09-23T14:38:27;23.50;99.90
24645;DHT22;12780;45.502;9.146;2022-09-23T14:41:23;23.40;99.90
24645;DHT22;12780;45.502;9.146;2022-09-23T14:43:56;23.30;99.90
24645;DHT22;12780;45.502;9.146;2022-09-23T14:46:30;23.10;99.90
24645;DHT22;12780;45.502;9.146;2022-09-23T14:49:14;23.10;99.90
24645;DHT22;12780;45.502;9.146;2022-09-23T14:51:59;23.00;99.90
24645;DHT22;12780;45.502;9.146;2022-09-23T14:59:58;22.80;99.90
24645;DHT22;12780;45.502;9.146;2022-09-23T15:02:31;22.80;99.90
24645;DHT22;12780;45.502;9.146;2022-09-23T15:07:35;22.70;99.90
24645;DHT22;12780;45.502;9.146;2022-09-23T15:10:01;22.80;99.90
24645;DHT22;12780;45.502;9.146;2022-09-23T15:12:29;22.80;99.90
24645;DHT22;12780;45.502;9.146;2022-09-23T15:14:55;22.80;99.90
24645;DHT22;12780;45.502;9.146;2022-09-23T15:17:31;22.80;99.90
24645;DHT22;12780;45.502;9.146;2022-09-23T15:20:02;22.90;99.90
24645;DHT22;12780;45.502;9.146;2022-09-23T15:22:29;22.90;99.90
24645;DHT22;12780;45.502;9.146;2022-09-23T15:25:17;22.90;99.90
24645;DHT22;12780;45.502;9.146;2022-09-23T15:28:18;22.80;99.90
24645;DHT22;12780;45.502;9.146;2022-09-23T15:30:43;22.80;99.90
24645;DHT22;12780;45.502;9.146;2022-09-23T15:33:12;22.70;99.90
24645;DHT22;12780;45.502;9.146;2022-09-23T15:35:43;22.70;99.90
24645;DHT22;12780;45.502;9.146;2022-09-23T15:38:10;22.70;99.90
24645;DHT22;12780;45.502;9.146;2022-09-23T15:40:36;22.70;99.90
24645;DHT22;12780;45.502;9.146;2022-09-23T15:43:23;22.60;99.90
24645;DHT22;12780;45.502;9.146;2022-09-23T15:46:04;22.60;99.90
24645;DHT22;12780;45.502;9.146;2022-09-23T15:48:36;22.60;99.90
24645;DHT22;12780;45.502;9.146;2022-09-23T15:51:05;22.60;99.90
24645;DHT22;12780;45.502;9.146;2022-09-23T15:53:32;22.60;99.90
24645;DHT22;12780;45.502;9.146;2022-09-23T15:55:58;22.70;99.90
24645;DHT22;12780;45.502;9.146;2022-09-23T15:58:24;22.70;99.90
24645;DHT22;12780;45.502;9.146;2022-09-23T16:00:53;22.60;99.90
24645;DHT22;12780;45.502;9.146;2022-09-23T16:03:20;22.60;99.90
24645;DHT22;12780;45.502;9.146;2022-09-23T16:05:48;22.60;99.90
24645;DHT22;12780;45.502;9.146;2022-09-23T16:08:14;22.60;99.90
24645;DHT22;12780;45.502;9.146;2022-09-23T16:10:41;22.60;99.90
24645;DHT22;12780;45.502;9.146;2022-09-23T16:13:11;22.60;99.90
24645;DHT22;12780;45.502;9.146;2022-09-23T16:15:37;22.50;99.90
24645;DHT22;12780;45.502;9.146;2022-09-23T16:18:05;22.40;99.90
24645;DHT22;12780;45.502;9.146;2022-09-23T16:20:34;22.40;99.90
24645;DHT22;12780;45.502;9.146;2022-09-23T16:23:07;22.30;99.90
24645;DHT22;12780;45.502;9.146;2022-09-23T16:25:33;22.20;99.90
24645;DHT22;12780;45.502;9.146;2022-09-23T16:28:02;22.10;99.90
24645;DHT22;12780;45.502;9.146;2022-09-23T16:30:30;22.10;99.90
24645;DHT22;12780;45.502;9.146;2022-09-23T16:32:56;22.00;99.90
24645;DHT22;12780;45.502;9.146;2022-09-23T16:35:24;22.10;99.90
24645;DHT22;12780;45.502;9.146;2022-09-23T16:37:51;21.90;99.90
24645;DHT22;12780;45.502;9.146;2022-09-23T16:40:19;21.80;99.90
24645;DHT22;12780;45.502;9.146;2022-09-23T16:42:46;21.80;99.90
24645;DHT22;12780;45.502;9.146;2022-09-23T16:45:14;21.70;99.90
24645;DHT22;12780;45.502;9.146;2022-09-23T16:47:42;21.70;99.90
24645;DHT22;12780;45.502;9.146;2022-09-23T16:50:10;21.60;99.90
24645;DHT22;12780;45.502;9.146;2022-09-23T16:52:36;21.60;99.90
24645;DHT22;12780;45.502;9.146;2022-09-23T16:55:03;21.50;99.90
24645;DHT22;12780;45.502;9.146;2022-09-23T16:57:28;21.50;99.90
24645;DHT22;12780;45.502;9.146;2022-09-23T16:59:54;21.50;99.90
24645;DHT22;12780;45.502;9.146;2022-09-23T17:02:38;21.40;99.90
24645;DHT22;12780;45.502;9.146;2022-09-23T17:05:22;21.40;99.90
24645;DHT22;12780;45.502;9.146;2022-09-23T17:07:48;21.40;99.90
24645;DHT22;12780;45.502;9.146;2022-09-23T17:10:14;21.40;99.90
24645;DHT22;12780;45.502;9.146;2022-09-23T17:12:43;21.20;99.90
24645;DHT22;12780;45.502;9.146;2022-09-23T17:15:09;21.20;99.90
24645;DHT22;12780;45.502;9.146;2022-09-23T17:17:35;21.20;99.90
24645;DHT22;12780;45.502;9.146;2022-09-23T17:20:03;21.10;99.90
24645;DHT22;12780;45.502;9.146;2022-09-23T17:22:30;21.10;99.90
24645;DHT22;12780;45.502;9.146;2022-09-23T17:24:55;21.10;99.90
24645;DHT22;12780;45.502;9.146;2022-09-23T17:27:22;21.10;99.90
24645;DHT22;12780;45.502;9.146;2022-09-23T17:29:49;21.10;99.90
24645;DHT22;12780;45.502;9.146;2022-09-23T17:32:14;21.00;99.90
24645;DHT22;12780;45.502;9.146;2022-09-23T17:34:40;21.00;99.90
24645;DHT22;12780;45.502;9.146;2022-09-23T17:37:07;21.00;99.90
24645;DHT22;12780;45.502;9.146;2022-09-23T17:39:33;21.00;99.90
24645;DHT22;12780;45.502;9.146;2022-09-23T17:41:59;21.00;99.90
24645;DHT22;12780;45.502;9.146;2022-09-23T17:44:24;21.10;99.90
24645;DHT22;12780;45.502;9.146;2022-09-23T17:46:50;21.10;99.90
24645;DHT22;12780;45.502;9.146;2022-09-23T17:49:16;21.10;99.90
24645;DHT22;12780;45.502;9.146;2022-09-23T17:51:42;21.20;99.90
24645;DHT22;12780;45.502;9.146;2022-09-23T17:54:08;21.10;99.90
24645;DHT22;12780;45.502;9.146;2022-09-23T17:56:35;21.00;99.90
24645;DHT22;12780;45.502;9.146;2022-09-23T17:59:01;20.80;99.90
24645;DHT22;12780;45.502;9.146;2022-09-23T18:01:27;20.80;99.90
24645;DHT22;12780;45.502;9.146;2022-09-23T18:04:00;20.80;99.90
24645;DHT22;12780;45.502;9.146;2022-09-23T18:06:27;20.70;99.90
24645;DHT22;12780;45.502;9.146;2022-09-23T18:08:54;20.70;99.90
24645;DHT22;12780;45.502;9.146;2022-09-23T18:11:24;20.60;99.90